sensor_id;sensor_type;location;lat;lon;timestamp;pressure;altitude;pressure_sealevel;temperature;humidity
27958;BME280;15295;42.658;23.374;2023-04-29T00:00:26;94647.22;;;12.91;37.61
27958;BME280;15295;42.658;23.374;2023-04-29T00:02:51;94641.75;;;12.88;37.56
27958;BME280;15295;42.658;23.374;2023-04-29T00:05:17;94636.19;;;12.95;37.40
27958;BME280;15295;42.658;23.374;2023-04-29T00:07:42;94638.50;;;12.96;37.32
27958;BME280;15295;42.658;23.374;2023-04-29T00:10:08;94638.44;;;13.03;37.15
27958;BME280;15295;42.658;23.374;2023-04-29T00:12:34;94622.19;;;12.86;37.13
27958;BME280;15295;42.658;23.374;2023-04-29T00:14:59;94627.59;;;12.93;36.92
27958;BME280;15295;42.658;23.374;2023-04-29T00:17:27;94642.03;;;12.97;36.91
27958;BME280;15295;42.658;23.374;2023-04-29T00:19:56;94633.75;;;13.00;36.87
27958;BME280;15295;42.658;23.374;2023-04-29T00:22:24;94605.78;;;12.82;36.84
27958;BME280;15295;42.658;23.374;2023-04-29T00:24:49;94649.47;;;13.00;36.92
27958;BME280;15295;42.658;23.374;2023-04-29T00:27:15;94649.09;;;12.98;36.90
27958;BME280;15295;42.658;23.374;2023-04-29T00:29:42;94655.22;;;13.12;36.81
27958;BME280;15295;42.658;23.374;2023-04-29T00:32:07;94639.22;;;13.04;36.72
27958;BME280;15295;42.658;23.374;2023-04-29T00:34:32;94650.91;;;13.11;36.84
27958;BME280;15295;42.658;23.374;2023-04-29T00:36:58;94650.19;;;13.04;36.87
27958;BME280;15295;42.658;23.374;2023-04-29T00:39:23;94645.94;;;12.99;36.98
27958;BME280;15295;42.658;23.374;2023-04-29T00:41:51;94657.97;;;13.09;37.10
27958;BME280;15295;42.658;23.374;2023-04-29T00:44:17;94633.81;;;12.97;37.22
27958;BME280;15295;42.658;23.374;2023-04-29T00:46:43;94647.00;;;13.09;37.30
27958;BME280;15295;42.658;23.374;2023-04-29T00:49:11;94655.59;;;13.11;37.36
27958;BME280;15295;42.658;23.374;2023-04-29T00:51:40;94641.16;;;13.07;37.46
27958;BME280;15295;42.658;23.374;2023-04-29T00:54:07;94617.78;;;12.92;37.53
27958;BME280;15295;42.658;23.374;2023-04-29T00:56:34;94634.53;;;13.04;37.51
27958;BME280;15295;42.658;23.374;2023-04-29T00:59:01;94636.88;;;13.06;37.58
27958;BME280;15295;42.658;23.374;2023-04-29T01:01:29;94586.66;;;12.75;37.61
27958;BME280;15295;42.658;23.374;2023-04-29T01:03:55;94621.25;;;12.99;37.72
27958;BME280;15295;42.658;23.374;2023-04-29T01:12:20;94615.19;;;12.81;38.21
27958;BME280;15295;42.658;23.374;2023-04-29T01:15:22;94622.66;;;12.81;38.83
27958;BME280;15295;42.658;23.374;2023-04-29T01:17:59;94615.25;;;12.78;38.90
27958;BME280;15295;42.658;23.374;2023-04-29T01:20:25;94611.41;;;12.72;38.94
27958;BME280;15295;42.658;23.374;2023-04-29T01:25:55;94601.44;;;12.85;38.85
27958;BME280;15295;42.658;23.374;2023-04-29T01:29:00;94608.03;;;12.91;39.17
27958;BME280;15295;42.658;23.374;2023-04-29T01:31:59;94615.69;;;13.03;38.93
27958;BME280;15295;42.658;23.374;2023-04-29T01:34:51;94611.41;;;13.05;38.98
27958;BME280;15295;42.658;23.374;2023-04-29T01:40:42;94611.06;;;13.00;39.24
27958;BME280;15295;42.658;23.374;2023-04-29T01:43:13;94606.81;;;12.92;39.16
27958;BME280;15295;42.658;23.374;2023-04-29T01:45:39;94600.16;;;12.93;38.74
27958;BME280;15295;42.658;23.374;2023-04-29T01:48:05;94601.09;;;12.83;38.41
27958;BME280;15295;42.658;23.374;2023-04-29T01:50:31;94611.28;;;12.79;37.80
27958;BME280;15295;42.658;23.374;2023-04-29T01:52:57;94588.69;;;12.71;37.63
27958;BME280;15295;42.658;23.374;2023-04-29T01:55:22;94598.41;;;12.76;37.62
27958;BME280;15295;42.658;23.374;2023-04-29T01:57:48;94601.28;;;12.65;37.95
27958;BME280;15295;42.658;23.374;2023-04-29T02:00:13;94585.22;;;12.30;38.59
27958;BME280;15295;42.658;23.374;2023-04-29T02:02:39;94605.19;;;12.30;38.81
27958;BME280;15295;42.658;23.374;2023-04-29T02:05:10;94589.34;;;12.11;39.20
27958;BME280;15295;42.658;23.374;2023-04-29T02:07:39;94593.44;;;11.93;39.53
27958;BME280;15295;42.658;23.374;2023-04-29T02:10:06;94589.63;;;11.80;39.69
27958;BME280;15295;42.658;23.374;2023-04-29T02:12:37;94595.03;;;11.90;39.68
27958;BME280;15295;42.658;23.374;2023-04-29T02:15:03;94611.81;;;11.92;39.94
27958;BME280;15295;42.658;23.374;2023-04-29T02:17:29;94607.13;;;11.93;39.87
27958;BME280;15295;42.658;23.374;2023-04-29T02:19:54;94583.75;;;11.81;40.08
27958;BME280;15295;42.658;23.374;2023-04-29T02:22:22;94605.16;;;11.93;40.10
27958;BME280;15295;42.658;23.374;2023-04-29T02:24:47;94590.72;;;11.89;40.04
27958;BME280;15295;42.658;23.374;2023-04-29T02:27:12;94592.69;;;11.89;40.53
27958;BME280;15295;42.658;23.374;2023-04-29T02:29:38;94597.38;;;11.88;40.73
27958;BME280;15295;42.658;23.374;2023-04-29T02:32:03;94609.03;;;11.96;40.72
27958;BME280;15295;42.658;23.374;2023-04-29T02:34:29;94612.19;;;11.94;40.80
27958;BME280;15295;42.658;23.374;2023-04-29T02:36:56;94603.94;;;11.98;40.12
27958;BME280;15295;42.658;23.374;2023-04-29T02:39:21;94586.38;;;11.95;40.43
27958;BME280;15295;42.658;23.374;2023-04-29T02:41:46;94605.09;;;12.00;40.36
27958;BME280;15295;42.658;23.374;2023-04-29T02:44:13;94598.81;;;12.00;40.76
27958;BME280;15295;42.658;23.374;2023-04-29T02:46:38;94606.25;;;12.03;40.61
27958;BME280;15295;42.658;23.374;2023-04-29T02:49:05;94584.75;;;11.98;40.55
27958;BME280;15295;42.658;23.374;2023-04-29T02:51:31;94580.13;;;11.95;40.68
27958;BME280;15295;42.658;23.374;2023-04-29T02:54:02;94604.22;;;12.10;40.90
27958;BME280;15295;42.658;23.374;2023-04-29T02:56:27;94598.81;;;12.03;40.98
27958;BME280;15295;42.658;23.374;2023-04-29T02:58:55;94609.41;;;12.01;40.95
27958;BME280;15295;42.658;23.374;2023-04-29T03:01:22;94615.34;;;11.93;40.98
27958;BME280;15295;42.658;23.374;2023-04-29T03:03:49;94636.47;;;11.92;41.09
27958;BME280;15295;42.658;23.374;2023-04-29T03:06:15;94619.75;;;11.80;41.09
27958;BME280;15295;42.658;23.374;2023-04-29T03:08:40;94604.59;;;11.68;41.17
27958;BME280;15295;42.658;23.374;2023-04-29T03:11:06;94624.03;;;11.81;41.50
27958;BME280;15295;42.658;23.374;2023-04-29T03:13:31;94612.38;;;11.73;41.63
27958;BME280;15295;42.658;23.374;2023-04-29T03:15:56;94612.31;;;11.80;41.76
27958;BME280;15295;42.658;23.374;2023-04-29T03:18:24;94622.81;;;11.85;41.83
27958;BME280;15295;42.658;23.374;2023-04-29T03:20:50;94627.94;;;11.83;41.97
27958;BME280;15295;42.658;23.374;2023-04-29T03:23:15;94620.91;;;11.79;42.15
27958;BME280;15295;42.658;23.374;2023-04-29T03:25:40;94618.19;;;11.79;42.08
27958;BME280;15295;42.658;23.374;2023-04-29T03:28:06;94619.06;;;11.65;42.25
27958;BME280;15295;42.658;23.374;2023-04-29T03:30:32;94617.91;;;11.62;42.30
27958;BME280;15295;42.658;23.374;2023-04-29T03:32:57;94603.09;;;11.56;42.64
27958;BME280;15295;42.658;23.374;2023-04-29T03:35:22;94644.47;;;11.69;42.61
27958;BME280;15295;42.658;23.374;2023-04-29T03:37:48;94647.19;;;11.73;42.63
27958;BME280;15295;42.658;23.374;2023-04-29T03:40:13;94634.38;;;11.55;42.52
27958;BME280;15295;42.658;23.374;2023-04-29T03:42:42;94655.06;;;11.67;42.66
27958;BME280;15295;42.658;23.374;2023-04-29T03:45:09;94655.81;;;11.68;42.66
27958;BME280;15295;42.658;23.374;2023-04-29T03:47:38;94651.16;;;11.57;42.73
27958;BME280;15295;42.658;23.374;2023-04-29T03:50:03;94659.38;;;11.61;42.88
27958;BME280;15295;42.658;23.374;2023-04-29T03:52:29;94666.34;;;11.65;42.99
27958;BME280;15295;42.658;23.374;2023-04-29T03:54:55;94623.47;;;11.48;43.08
27958;BME280;15295;42.658;23.374;2023-04-29T03:57:21;94641.38;;;11.60;43.35
27958;BME280;15295;42.658;23.374;2023-04-29T03:59:46;94637.84;;;11.67;43.09
27958;BME280;15295;42.658;23.374;2023-04-29T04:02:15;94652.16;;;11.88;43.00
27958;BME280;15295;42.658;23.374;2023-04-29T04:04:44;94645.09;;;11.91;43.11
27958;BME280;15295;42.658;23.374;2023-04-29T04:07:09;94645.06;;;11.94;43.09
27958;BME280;15295;42.658;23.374;2023-04-29T04:09:36;94643.06;;;11.98;43.15
27958;BME280;15295;42.658;23.374;2023-04-29T04:12:02;94637.16;;;12.03;43.02
27958;BME280;15295;42.658;23.374;2023-04-29T04:14:29;94648.13;;;12.03;42.72
27958;BME280;15295;42.658;23.374;2023-04-29T04:16:55;94637.94;;;12.04;41.77
27958;BME280;15295;42.658;23.374;2023-04-29T04:19:24;94656.25;;;12.14;41.67
27958;BME280;15295;42.658;23.374;2023-04-29T04:21:51;94658.94;;;12.21;42.24
27958;BME280;15295;42.658;23.374;2023-04-29T04:24:16;94658.09;;;12.24;42.68
27958;BME280;15295;42.658;23.374;2023-04-29T04:26:42;94653.81;;;12.19;42.57
27958;BME280;15295;42.658;23.374;2023-04-29T04:29:10;94660.38;;;12.32;42.65
27958;BME280;15295;42.658;23.374;2023-04-29T04:31:36;94648.56;;;12.39;42.36
27958;BME280;15295;42.658;23.374;2023-04-29T04:34:02;94647.72;;;12.46;41.40
27958;BME280;15295;42.658;23.374;2023-04-29T04:36:27;94646.50;;;12.50;40.21
27958;BME280;15295;42.658;23.374;2023-04-29T04:38:53;94636.78;;;12.42;40.31
27958;BME280;15295;42.658;23.374;2023-04-29T04:41:18;94646.13;;;12.45;40.57
27958;BME280;15295;42.658;23.374;2023-04-29T04:43:43;94637.63;;;12.35;40.49
27958;BME280;15295;42.658;23.374;2023-04-29T04:46:12;94655.63;;;12.40;40.73
27958;BME280;15295;42.658;23.374;2023-04-29T04:48:38;94632.22;;;12.28;40.58
27958;BME280;15295;42.658;23.374;2023-04-29T04:51:08;94664.84;;;12.53;41.44
27958;BME280;15295;42.658;23.374;2023-04-29T04:53:34;94652.75;;;12.51;42.37
27958;BME280;15295;42.658;23.374;2023-04-29T04:56:00;94666.25;;;12.68;42.91
27958;BME280;15295;42.658;23.374;2023-04-29T04:58:26;94651.81;;;12.64;42.83
27958;BME280;15295;42.658;23.374;2023-04-29T05:00:51;94663.97;;;12.97;43.53
27958;BME280;15295;42.658;23.374;2023-04-29T05:03:18;94664.63;;;13.11;43.49
27958;BME280;15295;42.658;23.374;2023-04-29T05:05:43;94659.09;;;13.15;43.06
27958;BME280;15295;42.658;23.374;2023-04-29T05:08:09;94655.97;;;13.13;42.71
27958;BME280;15295;42.658;23.374;2023-04-29T05:10:35;94618.84;;;13.05;42.52
27958;BME280;15295;42.658;23.374;2023-04-29T05:13:01;94629.16;;;13.24;42.00
27958;BME280;15295;42.658;23.374;2023-04-29T05:15:28;94639.91;;;13.42;41.85
27958;BME280;15295;42.658;23.374;2023-04-29T05:17:53;94640.09;;;13.58;41.06
27958;BME280;15295;42.658;23.374;2023-04-29T05:20:19;94618.00;;;13.65;40.24
27958;BME280;15295;42.658;23.374;2023-04-29T05:22:45;94631.00;;;13.87;39.78
27958;BME280;15295;42.658;23.374;2023-04-29T05:25:11;94632.53;;;13.88;39.17
27958;BME280;15295;42.658;23.374;2023-04-29T05:27:36;94605.09;;;13.62;38.71
27958;BME280;15295;42.658;23.374;2023-04-29T05:30:02;94607.78;;;13.65;38.96
27958;BME280;15295;42.658;23.374;2023-04-29T05:32:27;94599.19;;;13.63;39.01
27958;BME280;15295;42.658;23.374;2023-04-29T05:34:52;94627.38;;;13.67;39.30
27958;BME280;15295;42.658;23.374;2023-04-29T05:37:18;94614.00;;;13.69;39.10
27958;BME280;15295;42.658;23.374;2023-04-29T05:39:43;94603.59;;;13.57;39.28
27958;BME280;15295;42.658;23.374;2023-04-29T05:42:09;94625.91;;;13.86;39.03
27958;BME280;15295;42.658;23.374;2023-04-29T05:44:34;94624.53;;;13.98;39.15
27958;BME280;15295;42.658;23.374;2023-04-29T05:47:00;94609.38;;;14.13;38.73
27958;BME280;15295;42.658;23.374;2023-04-29T05:49:25;94602.31;;;14.12;38.46
27958;BME280;15295;42.658;23.374;2023-04-29T05:51:50;94611.59;;;14.21;38.64
27958;BME280;15295;42.658;23.374;2023-04-29T05:54:16;94605.03;;;14.38;38.10
27958;BME280;15295;42.658;23.374;2023-04-29T05:56:41;94553.16;;;14.17;37.91
27958;BME280;15295;42.658;23.374;2023-04-29T05:59:07;94633.06;;;14.73;37.86
27958;BME280;15295;42.658;23.374;2023-04-29T06:01:32;94622.97;;;15.05;41.65
27958;BME280;15295;42.658;23.374;2023-04-29T06:03:58;94634.75;;;15.61;39.02
27958;BME280;15295;42.658;23.374;2023-04-29T06:06:23;94612.66;;;15.65;37.52
27958;BME280;15295;42.658;23.374;2023-04-29T06:08:49;94621.97;;;15.71;37.18
27958;BME280;15295;42.658;23.374;2023-04-29T06:11:20;94618.94;;;15.97;36.72
27958;BME280;15295;42.658;23.374;2023-04-29T06:13:46;94601.31;;;16.11;36.11
27958;BME280;15295;42.658;23.374;2023-04-29T06:16:12;94622.66;;;16.39;36.18
27958;BME280;15295;42.658;23.374;2023-04-29T06:18:37;94622.75;;;16.52;35.72
27958;BME280;15295;42.658;23.374;2023-04-29T06:21:03;94619.88;;;16.55;35.30
27958;BME280;15295;42.658;23.374;2023-04-29T06:23:28;94630.56;;;16.69;35.58
27958;BME280;15295;42.658;23.374;2023-04-29T06:25:54;94621.34;;;16.88;35.08
27958;BME280;15295;42.658;23.374;2023-04-29T06:28:19;94629.38;;;17.12;34.73
27958;BME280;15295;42.658;23.374;2023-04-29T06:30:45;94621.69;;;17.19;33.91
27958;BME280;15295;42.658;23.374;2023-04-29T06:33:10;94607.56;;;17.30;33.86
27958;BME280;15295;42.658;23.374;2023-04-29T06:35:39;94625.72;;;17.56;nan
27958;BME280;15295;42.658;23.374;2023-04-29T06:38:05;94633.03;;;17.75;33.07
27958;BME280;15295;42.658;23.374;2023-04-29T06:40:32;94630.84;;;17.95;32.38
27958;BME280;15295;42.658;23.374;2023-04-29T06:42:58;94626.53;;;18.07;32.27
27958;BME280;15295;42.658;23.374;2023-04-29T06:45:23;94629.28;;;18.19;33.17
27958;BME280;15295;42.658;23.374;2023-04-29T06:47:50;94627.66;;;18.69;37.79
27958;BME280;15295;42.658;23.374;2023-04-29T06:50:15;94631.47;;;19.05;32.62
27958;BME280;15295;42.658;23.374;2023-04-29T06:52:41;94603.41;;;18.94;32.20
27958;BME280;15295;42.658;23.374;2023-04-29T06:55:07;94613.00;;;19.02;31.70
27958;BME280;15295;42.658;23.374;2023-04-29T06:57:37;94609.38;;;19.14;30.93
27958;BME280;15295;42.658;23.374;2023-04-29T07:00:11;94592.13;;;19.10;31.72
27958;BME280;15295;42.658;23.374;2023-04-29T07:02:46;94590.13;;;19.11;31.67
27958;BME280;15295;42.658;23.374;2023-04-29T07:05:15;94596.44;;;18.90;30.79
27958;BME280;15295;42.658;23.374;2023-04-29T07:10:42;94576.59;;;18.70;31.97
27958;BME280;15295;42.658;23.374;2023-04-29T07:13:18;94563.50;;;18.48;32.70
27958;BME280;15295;42.658;23.374;2023-04-29T07:21:49;94610.94;;;19.15;31.72
27958;BME280;15295;42.658;23.374;2023-04-29T07:24:14;94613.50;;;19.10;31.61
27958;BME280;15295;42.658;23.374;2023-04-29T07:26:42;94595.66;;;18.89;31.43
27958;BME280;15295;42.658;23.374;2023-04-29T07:29:09;94613.38;;;18.92;31.92
27958;BME280;15295;42.658;23.374;2023-04-29T07:31:34;94603.53;;;19.12;31.88
27958;BME280;15295;42.658;23.374;2023-04-29T07:34:00;94605.31;;;19.28;33.64
27958;BME280;15295;42.658;23.374;2023-04-29T07:36:25;94602.69;;;19.46;31.70
27958;BME280;15295;42.658;23.374;2023-04-29T07:39:11;94607.31;;;19.49;30.36
27958;BME280;15295;42.658;23.374;2023-04-29T07:41:39;94618.38;;;19.71;30.08
27958;BME280;15295;42.658;23.374;2023-04-29T07:44:11;94587.69;;;19.65;30.04
27958;BME280;15295;42.658;23.374;2023-04-29T07:46:37;94593.94;;;19.87;29.86
27958;BME280;15295;42.658;23.374;2023-04-29T07:49:03;94611.78;;;20.17;29.56
27958;BME280;15295;42.658;23.374;2023-04-29T07:51:49;94586.69;;;20.30;29.25
27958;BME280;15295;42.658;23.374;2023-04-29T07:54:35;94545.69;;;20.25;29.35
27958;BME280;15295;42.658;23.374;2023-04-29T08:08:00;94601.06;;;22.15;27.50
27958;BME280;15295;42.658;23.374;2023-04-29T08:10:46;94580.53;;;22.36;28.31
27958;BME280;15295;42.658;23.374;2023-04-29T08:13:15;94584.16;;;22.75;27.31
27958;BME280;15295;42.658;23.374;2023-04-29T08:15:56;94599.59;;;22.99;26.50
27958;BME280;15295;42.658;23.374;2023-04-29T08:18:28;94578.56;;;22.98;26.83
27958;BME280;15295;42.658;23.374;2023-04-29T08:20:54;94559.66;;;23.17;26.38
27958;BME280;15295;42.658;23.374;2023-04-29T08:23:23;94566.50;;;23.31;25.52
27958;BME280;15295;42.658;23.374;2023-04-29T08:25:52;94577.41;;;23.58;25.34
27958;BME280;15295;42.658;23.374;2023-04-29T08:28:22;94580.66;;;23.71;24.63
27958;BME280;15295;42.658;23.374;2023-04-29T08:31:01;94549.78;;;23.60;23.55
27958;BME280;15295;42.658;23.374;2023-04-29T08:33:42;94566.41;;;23.84;23.11
27958;BME280;15295;42.658;23.374;2023-04-29T08:36:12;94567.94;;;23.85;22.83
27958;BME280;15295;42.658;23.374;2023-04-29T08:38:56;94553.22;;;23.84;22.85
27958;BME280;15295;42.658;23.374;2023-04-29T08:41:25;94554.53;;;24.03;23.04
27958;BME280;15295;42.658;23.374;2023-04-29T08:43:51;94558.50;;;24.11;23.43
27958;BME280;15295;42.658;23.374;2023-04-29T08:46:18;94570.44;;;23.97;23.64
27958;BME280;15295;42.658;23.374;2023-04-29T08:48:46;94580.25;;;23.78;23.67
27958;BME280;15295;42.658;23.374;2023-04-29T08:51:12;94543.34;;;23.54;22.95
27958;BME280;15295;42.658;23.374;2023-04-29T08:53:41;94532.56;;;23.47;22.53
27958;BME280;15295;42.658;23.374;2023-04-29T08:56:11;94540.06;;;23.55;22.84
27958;BME280;15295;42.658;23.374;2023-04-29T08:58:40;94565.44;;;23.87;22.55
27958;BME280;15295;42.658;23.374;2023-04-29T09:01:07;94568.69;;;24.00;22.81
27958;BME280;15295;42.658;23.374;2023-04-29T09:03:41;94545.59;;;23.99;22.71
27958;BME280;15295;42.658;23.374;2023-04-29T09:06:09;94551.94;;;24.14;22.58
27958;BME280;15295;42.658;23.374;2023-04-29T09:08:35;94518.47;;;23.85;22.74
27958;BME280;15295;42.658;23.374;2023-04-29T09:11:02;94540.91;;;24.05;22.25
27958;BME280;15295;42.658;23.374;2023-04-29T09:13:29;94553.97;;;24.14;22.22
27958;BME280;15295;42.658;23.374;2023-04-29T09:19:35;94544.25;;;24.44;22.27
27958;BME280;15295;42.658;23.374;2023-04-29T09:22:02;94537.88;;;24.43;22.15
27958;BME280;15295;42.658;23.374;2023-04-29T09:24:34;94537.69;;;24.67;21.97
27958;BME280;15295;42.658;23.374;2023-04-29T09:27:00;94503.16;;;24.70;21.48
27958;BME280;15295;42.658;23.374;2023-04-29T09:29:30;94539.50;;;25.10;21.04
27958;BME280;15295;42.658;23.374;2023-04-29T09:31:57;94510.47;;;25.08;20.66
27958;BME280;15295;42.658;23.374;2023-04-29T09:34:33;94528.75;;;25.29;20.72
27958;BME280;15295;42.658;23.374;2023-04-29T09:37:25;94536.84;;;25.27;19.82
27958;BME280;15295;42.658;23.374;2023-04-29T09:39:54;94529.44;;;25.24;20.38
27958;BME280;15295;42.658;23.374;2023-04-29T09:42:30;94504.78;;;25.22;20.25
27958;BME280;15295;42.658;23.374;2023-04-29T09:45:06;94522.25;;;25.17;20.34
27958;BME280;15295;42.658;23.374;2023-04-29T09:47:43;94521.72;;;25.13;20.59
27958;BME280;15295;42.658;23.374;2023-04-29T09:50:17;94525.72;;;25.33;20.44
27958;BME280;15295;42.658;23.374;2023-04-29T09:52:43;94502.94;;;25.19;20.53
27958;BME280;15295;42.658;23.374;2023-04-29T09:55:09;94479.66;;;25.02;20.53
27958;BME280;15295;42.658;23.374;2023-04-29T09:57:39;94511.25;;;25.34;20.30
27958;BME280;15295;42.658;23.374;2023-04-29T10:00:09;94511.47;;;25.31;20.63
27958;BME280;15295;42.658;23.374;2023-04-29T10:02:48;94504.06;;;25.27;20.88
27958;BME280;15295;42.658;23.374;2023-04-29T10:05:16;94472.19;;;25.19;20.55
27958;BME280;15295;42.658;23.374;2023-04-29T10:07:58;94494.91;;;25.53;20.48
27958;BME280;15295;42.658;23.374;2023-04-29T10:10:30;94465.38;;;25.52;20.31
27958;BME280;15295;42.658;23.374;2023-04-29T10:12:55;94466.25;;;25.63;20.16
27958;BME280;15295;42.658;23.374;2023-04-29T10:18:40;94493.66;;;26.22;19.64
27958;BME280;15295;42.658;23.374;2023-04-29T10:21:07;94492.38;;;26.23;19.73
27958;BME280;15295;42.658;23.374;2023-04-29T10:23:57;94469.63;;;26.10;19.88
27958;BME280;15295;42.658;23.374;2023-04-29T10:26:27;94464.34;;;26.23;19.75
27958;BME280;15295;42.658;23.374;2023-04-29T10:28:55;94472.28;;;26.30;19.31
27958;BME280;15295;42.658;23.374;2023-04-29T10:31:28;94428.56;;;26.01;18.79
27958;BME280;15295;42.658;23.374;2023-04-29T10:33:58;94469.22;;;26.28;18.67
27958;BME280;15295;42.658;23.374;2023-04-29T10:36:32;94475.16;;;26.41;18.99
27958;BME280;15295;42.658;23.374;2023-04-29T10:39:01;94429.84;;;26.00;18.44
27958;BME280;15295;42.658;23.374;2023-04-29T10:41:41;94440.81;;;26.03;18.63
27958;BME280;15295;42.658;23.374;2023-04-29T10:44:14;94423.41;;;25.88;18.68
27958;BME280;15295;42.658;23.374;2023-04-29T10:46:42;94411.78;;;25.64;19.03
27958;BME280;15295;42.658;23.374;2023-04-29T10:49:20;94419.00;;;25.76;18.79
27958;BME280;15295;42.658;23.374;2023-04-29T10:51:59;94470.06;;;26.02;18.85
27958;BME280;15295;42.658;23.374;2023-04-29T10:54:32;94449.56;;;25.80;19.32
27958;BME280;15295;42.658;23.374;2023-04-29T10:57:04;94422.53;;;25.40;18.95
27958;BME280;15295;42.658;23.374;2023-04-29T11:02:13;94424.59;;;25.14;19.79
27958;BME280;15295;42.658;23.374;2023-04-29T11:05:07;94459.59;;;25.30;19.36
27958;BME280;15295;42.658;23.374;2023-04-29T11:07:39;94421.66;;;24.97;19.37
27958;BME280;15295;42.658;23.374;2023-04-29T11:10:41;94429.88;;;24.81;19.24
27958;BME280;15295;42.658;23.374;2023-04-29T11:13:27;94425.00;;;24.76;19.96
27958;BME280;15295;42.658;23.374;2023-04-29T11:16:20;94454.81;;;25.10;20.26
27958;BME280;15295;42.658;23.374;2023-04-29T11:19:08;94453.16;;;25.23;20.02
27958;BME280;15295;42.658;23.374;2023-04-29T11:21:37;94439.56;;;25.11;19.67
27958;BME280;15295;42.658;23.374;2023-04-29T11:24:09;94452.13;;;25.21;19.46
27958;BME280;15295;42.658;23.374;2023-04-29T11:27:00;94431.72;;;25.15;19.34
27958;BME280;15295;42.658;23.374;2023-04-29T11:29:33;94460.03;;;25.22;19.23
27958;BME280;15295;42.658;23.374;2023-04-29T11:32:19;94454.88;;;25.15;19.15
27958;BME280;15295;42.658;23.374;2023-04-29T11:34:47;94416.03;;;24.72;19.69
27958;BME280;15295;42.658;23.374;2023-04-29T11:37:22;94447.03;;;24.94;19.92
27958;BME280;15295;42.658;23.374;2023-04-29T11:40:00;94428.88;;;24.84;19.65
27958;BME280;15295;42.658;23.374;2023-04-29T11:42:47;94405.13;;;24.48;20.09
27958;BME280;15295;42.658;23.374;2023-04-29T11:50:47;94439.81;;;24.21;20.42
27958;BME280;15295;42.658;23.374;2023-04-29T11:55:51;94439.53;;;23.99;20.96
27958;BME280;15295;42.658;23.374;2023-04-29T11:58:53;94390.78;;;23.60;20.73
27958;BME280;15295;42.658;23.374;2023-04-29T12:01:35;94444.56;;;23.81;21.36
27958;BME280;15295;42.658;23.374;2023-04-29T12:04:05;94434.47;;;23.48;22.00
27958;BME280;15295;42.658;23.374;2023-04-29T12:06:32;94378.66;;;23.14;21.70
27958;BME280;15295;42.658;23.374;2023-04-29T12:09:07;94434.56;;;23.54;21.46
27958;BME280;15295;42.658;23.374;2023-04-29T12:14:04;94372.91;;;22.88;22.68
27958;BME280;15295;42.658;23.374;2023-04-29T12:16:39;94404.03;;;22.86;23.37
27958;BME280;15295;42.658;23.374;2023-04-29T12:19:08;94437.94;;;22.99;23.12
27958;BME280;15295;42.658;23.374;2023-04-29T12:21:46;94427.38;;;23.03;24.28
27958;BME280;15295;42.658;23.374;2023-04-29T12:24:14;94429.97;;;23.07;23.75
27958;BME280;15295;42.658;23.374;2023-04-29T12:26:43;94370.88;;;22.74;23.92
27958;BME280;15295;42.658;23.374;2023-04-29T12:29:11;94407.56;;;23.01;24.32
27958;BME280;15295;42.658;23.374;2023-04-29T12:31:49;94417.84;;;23.10;24.13
27958;BME280;15295;42.658;23.374;2023-04-29T12:34:27;94419.47;;;23.17;23.30
27958;BME280;15295;42.658;23.374;2023-04-29T12:37:01;94389.34;;;23.00;23.37
27958;BME280;15295;42.658;23.374;2023-04-29T12:39:29;94401.63;;;23.09;23.34
27958;BME280;15295;42.658;23.374;2023-04-29T12:42:02;94404.97;;;23.13;23.62
27958;BME280;15295;42.658;23.374;2023-04-29T12:44:40;94383.75;;;23.00;23.72
27958;BME280;15295;42.658;23.374;2023-04-29T12:47:11;94397.69;;;23.15;24.35
27958;BME280;15295;42.658;23.374;2023-04-29T12:49:43;94410.84;;;23.15;24.77
27958;BME280;15295;42.658;23.374;2023-04-29T12:52:08;94396.63;;;23.13;24.94
27958;BME280;15295;42.658;23.374;2023-04-29T12:54:38;94370.78;;;22.97;24.70
27958;BME280;15295;42.658;23.374;2023-04-29T12:57:09;94385.94;;;23.11;24.58
27958;BME280;15295;42.658;23.374;2023-04-29T12:59:50;94382.38;;;23.11;24.54
27958;BME280;15295;42.658;23.374;2023-04-29T13:02:25;94355.88;;;23.00;24.23
27958;BME280;15295;42.658;23.374;2023-04-29T13:04:54;94366.91;;;23.10;24.08
27958;BME280;15295;42.658;23.374;2023-04-29T13:07:20;94395.06;;;23.41;24.61
27958;BME280;15295;42.658;23.374;2023-04-29T13:09:46;94397.69;;;23.64;24.19
27958;BME280;15295;42.658;23.374;2023-04-29T13:12:13;94387.09;;;23.68;23.87
27958;BME280;15295;42.658;23.374;2023-04-29T13:14:38;94404.34;;;23.87;24.55
27958;BME280;15295;42.658;23.374;2023-04-29T13:17:04;94401.41;;;23.96;24.23
27958;BME280;15295;42.658;23.374;2023-04-29T13:19:29;94404.47;;;23.98;24.40
27958;BME280;15295;42.658;23.374;2023-04-29T13:21:56;94394.38;;;24.01;24.59
27958;BME280;15295;42.658;23.374;2023-04-29T13:26:57;94404.16;;;23.91;24.99
27958;BME280;15295;42.658;23.374;2023-04-29T13:29:25;94402.97;;;23.97;25.52
27958;BME280;15295;42.658;23.374;2023-04-29T13:31:50;94402.97;;;24.17;26.12
27958;BME280;15295;42.658;23.374;2023-04-29T13:34:16;94399.13;;;24.15;24.21
27958;BME280;15295;42.658;23.374;2023-04-29T13:36:49;94396.97;;;24.04;24.61
27958;BME280;15295;42.658;23.374;2023-04-29T13:39:24;94401.31;;;24.05;24.69
27958;BME280;15295;42.658;23.374;2023-04-29T13:41:53;94372.94;;;23.92;24.48
27958;BME280;15295;42.658;23.374;2023-04-29T13:44:34;94372.59;;;23.85;24.74
27958;BME280;15295;42.658;23.374;2023-04-29T13:47:24;94375.53;;;23.75;25.54
27958;BME280;15295;42.658;23.374;2023-04-29T13:49:57;94394.19;;;24.04;25.03
27958;BME280;15295;42.658;23.374;2023-04-29T13:52:38;94390.03;;;24.00;25.16
27958;BME280;15295;42.658;23.374;2023-04-29T13:57:39;94356.19;;;23.92;25.90
27958;BME280;15295;42.658;23.374;2023-04-29T14:00:05;94380.91;;;24.19;25.03